Time;durP1;ratioP1;P1;durP2;ratioP2;P2;SDS_P1;SDS_P2;PMS_P1;PMS_P2;Temp;Humidity;BMP_temperature;BMP_pressure;BME280_temperature;BME280_humidity;BME280_pressure;Samples;Min_cycle;Max_cycle;Signal;HPM_P1;HPM_P2
2022/06/09 00:01:33;;;;;;;23.08;7.13;;;14.40;99.90;;;;;;5008113;28;20063;-80
2022/06/09 00:04:30;;;;;;;19.42;6.95;;;14.40;99.90;;;;;;4984558;28;20566;-82
2022/06/09 00:07:07;;;;;;;17.90;6.97;;;14.40;99.90;;;;;;5010177;28;20132;-82
2022/06/09 00:09:37;;;;;;;12.77;6.07;;;14.40;99.90;;;;;;5011242;28;20146;-82
2022/06/09 00:12:04;;;;;;;12.85;5.85;;;14.30;99.90;;;;;;4994959;28;20033;-83
2022/06/09 00:14:29;;;;;;;14.82;6.93;;;14.30;99.90;;;;;;4994710;28;20499;-82
2022/06/09 00:16:56;;;;;;;17.08;7.13;;;14.30;99.90;;;;;;5008369;28;20057;-82
2022/06/09 00:19:22;;;;;;;11.93;6.30;;;14.30;99.90;;;;;;4992386;28;20053;-82
2022/06/09 00:21:48;;;;;;;15.80;6.75;;;14.30;99.90;;;;;;4995081;28;20506;-81
2022/06/09 00:24:13;;;;;;;18.42;6.80;;;14.30;99.90;;;;;;4993787;28;20045;-82
2022/06/09 00:26:39;;;;;;;14.93;6.43;;;14.20;99.90;;;;;;4989830;28;20495;-81
2022/06/09 00:29:05;;;;;;;13.70;5.70;;;14.20;99.90;;;;;;4991513;28;20601;-81
2022/06/09 00:31:31;;;;;;;14.90;6.45;;;14.20;99.90;;;;;;5009317;28;20040;-81
2022/06/09 00:33:57;;;;;;;14.23;6.00;;;14.20;99.90;;;;;;5008279;28;20132;-82
2022/06/09 00:36:23;;;;;;;10.63;5.20;;;14.20;99.90;;;;;;5008607;28;20530;-81
2022/06/09 00:38:49;;;;;;;10.52;4.80;;;14.20;99.90;;;;;;4992489;28;20084;-82
2022/06/09 00:41:14;;;;;;;10.15;6.15;;;14.20;99.90;;;;;;5008749;28;20478;-81
2022/06/09 00:43:42;;;;;;;14.93;5.68;;;14.10;99.90;;;;;;5010781;28;20049;-82
2022/06/09 00:46:21;;;;;;;14.13;5.80;;;14.10;99.90;;;;;;5006407;28;20046;-82
2022/06/09 00:48:59;;;;;;;11.23;5.93;;;14.10;99.90;;;;;;5008848;28;20495;-82
2022/06/09 00:51:44;;;;;;;14.80;5.20;;;14.20;99.90;;;;;;5008277;28;20061;-81
2022/06/09 00:54:18;;;;;;;12.02;5.20;;;14.20;99.90;;;;;;5008316;28;20095;-81
2022/06/09 00:57:15;;;;;;;13.75;4.70;;;14.20;99.90;;;;;;4988663;28;20045;-81
2022/06/09 00:59:48;;;;;;;8.30;4.85;;;14.10;99.90;;;;;;5007651;28;20060;-81
2022/06/09 01:02:17;;;;;;;9.10;4.25;;;14.10;99.90;;;;;;4993645;28;20672;-82
2022/06/09 01:04:43;;;;;;;8.52;3.55;;;14.10;99.90;;;;;;5008302;28;20120;-82
2022/06/09 01:07:13;;;;;;;10.40;3.60;;;14.10;99.90;;;;;;4993691;28;20049;-79
2022/06/09 01:09:39;;;;;;;9.48;3.55;;;14.10;99.90;;;;;;5007932;28;20073;-81
2022/06/09 01:12:23;;;;;;;10.40;2.90;;;14.10;99.90;;;;;;4991984;28;20074;-82
2022/06/09 01:14:50;;;;;;;6.15;3.17;;;14.10;99.90;;;;;;5009191;28;20077;-81
2022/06/09 01:17:39;;;;;;;6.22;3.17;;;14.10;99.90;;;;;;4991992;28;20119;-81
2022/06/09 01:20:13;;;;;;;8.15;4.38;;;14.20;99.90;;;;;;5009572;28;20129;-81
2022/06/09 01:23:00;;;;;;;7.82;3.40;;;14.20;99.90;;;;;;5009109;28;20056;-80
2022/06/09 01:26:00;;;;;;;6.55;2.90;;;14.20;99.90;;;;;;4987068;28;20053;-81
2022/06/09 01:28:36;;;;;;;7.10;2.65;;;14.20;99.90;;;;;;5006736;28;20116;-81
2022/06/09 01:31:25;;;;;;;7.00;2.70;;;14.20;99.90;;;;;;4992428;28;20053;-81
2022/06/09 01:34:29;;;;;;;4.38;2.38;;;14.20;99.90;;;;;;5007909;28;20041;-81
2022/06/09 01:37:17;;;;;;;5.88;2.50;;;14.20;99.90;;;;;;5008677;28;20493;-81
2022/06/09 01:39:53;;;;;;;6.88;3.75;;;14.20;99.90;;;;;;5005895;28;20107;-81
2022/06/09 01:42:21;;;;;;;;;;;14.20;99.90;;;;;;5007732;28;20385;-81
2022/06/09 01:44:48;;;;;;;4.38;2.72;;;14.20;99.90;;;;;;5022688;28;19925;-81
2022/06/09 01:47:17;;;;;;;5.40;2.63;;;14.10;99.90;;;;;;5008151;28;20500;-79
2022/06/09 01:49:45;;;;;;;6.60;3.17;;;14.10;99.90;;;;;;5005622;28;20080;-81
2022/06/09 01:52:11;;;;;;;6.82;3.33;;;14.10;99.90;;;;;;4989022;28;20116;-81
2022/06/09 01:54:38;;;;;;;5.40;2.75;;;14.10;99.90;;;;;;5007543;28;20136;-81
2022/06/09 01:57:17;;;;;;;6.07;3.35;;;14.10;99.90;;;;;;5008150;28;20045;-81
2022/06/09 01:59:49;;;;;;;6.72;3.70;;;14.10;99.90;;;;;;5005921;28;20067;-81
2022/06/09 02:02:20;;;;;;;5.93;3.20;;;14.10;99.90;;;;;;5007802;28;20099;-81
2022/06/09 02:04:56;;;;;;;7.22;4.07;;;14.10;99.90;;;;;;5006142;28;20053;-81
2022/06/09 02:07:22;;;;;;;7.20;4.13;;;14.10;99.90;;;;;;4991497;28;20136;-81
2022/06/09 02:09:47;;;;;;;7.03;3.92;;;14.00;99.90;;;;;;5006210;28;20455;-81
2022/06/09 02:12:16;;;;;;;5.35;3.90;;;14.00;99.90;;;;;;5008735;28;20088;-81
2022/06/09 02:14:49;;;;;;;8.43;4.53;;;14.00;99.90;;;;;;5007778;28;20049;-81
2022/06/09 02:17:15;;;;;;;6.50;4.13;;;14.00;99.90;;;;;;4991639;28;20061;-81
2022/06/09 02:19:42;;;;;;;8.02;3.60;;;14.00;99.90;;;;;;5007569;28;20033;-81
2022/06/09 02:22:10;;;;;;;8.18;3.47;;;14.00;99.90;;;;;;5016917;28;20268;-81
2022/06/09 02:24:36;;;;;;;6.88;3.75;;;14.00;99.90;;;;;;5007621;28;20454;-80
2022/06/09 02:27:02;;;;;;;7.18;4.03;;;14.00;99.90;;;;;;4994538;28;20068;-81
2022/06/09 02:29:27;;;;;;;5.57;3.63;;;13.90;99.90;;;;;;5007826;28;20124;-81
2022/06/09 02:31:54;;;;;;;7.22;3.92;;;14.00;99.90;;;;;;4993085;28;20105;-80
2022/06/09 02:34:20;;;;;;;9.77;3.88;;;13.90;99.90;;;;;;5006773;28;20155;-80
2022/06/09 02:36:46;;;;;;;5.75;3.60;;;14.00;99.90;;;;;;4976928;28;20057;-81
2022/06/09 02:39:12;;;;;;;8.00;4.10;;;13.90;99.90;;;;;;4991559;28;20814;-81
2022/06/09 02:41:37;;;;;;;7.20;4.10;;;13.90;99.90;;;;;;5008239;28;20504;-80
2022/06/09 02:44:04;;;;;;;9.80;4.55;;;13.90;99.90;;;;;;4976104;28;20443;-80
2022/06/09 02:46:30;;;;;;;12.40;5.10;;;13.90;99.90;;;;;;5006495;28;20068;-82
2022/06/09 02:48:56;;;;;;;7.35;4.60;;;13.90;99.90;;;;;;4990769;28;20509;-81
2022/06/09 02:51:29;;;;;;;9.57;4.53;;;13.90;99.90;;;;;;5006559;28;20049;-81
2022/06/09 02:54:00;;;;;;;10.88;5.15;;;13.90;99.90;;;;;;5007878;28;20406;-81
2022/06/09 02:56:26;;;;;;;12.48;6.78;;;13.90;99.90;;;;;;4989901;28;20071;-81
2022/06/09 02:58:52;;;;;;;7.93;5.20;;;13.80;99.90;;;;;;5007571;28;20052;-81
2022/06/09 03:01:19;;;;;;;7.93;5.25;;;13.80;99.90;;;;;;4990431;28;20136;-81
2022/06/09 03:03:45;;;;;;;8.05;4.70;;;13.80;99.90;;;;;;5007110;28;20049;-81
2022/06/09 03:06:11;;;;;;;11.57;5.65;;;13.80;99.90;;;;;;5009463;28;20187;-81
2022/06/09 03:08:37;;;;;;;8.07;5.00;;;13.80;99.90;;;;;;5011659;28;20482;-82
2022/06/09 03:11:04;;;;;;;8.70;4.95;;;13.80;99.90;;;;;;4995461;28;20148;-81
2022/06/09 03:13:30;;;;;;;7.18;4.70;;;13.80;99.90;;;;;;4994444;28;20397;-81
2022/06/09 03:15:56;;;;;;;9.25;4.25;;;13.80;99.90;;;;;;5009747;28;20045;-81
2022/06/09 03:18:21;;;;;;;6.50;3.58;;;13.70;99.90;;;;;;5010219;28;20054;-81
2022/06/09 03:20:48;;;;;;;7.22;4.30;;;13.80;99.90;;;;;;4993065;28;20064;-81
2022/06/09 03:23:15;;;;;;;10.27;3.83;;;13.80;99.90;;;;;;5010159;28;20539;-82
2022/06/09 03:25:42;;;;;;;9.25;4.00;;;13.80;99.90;;;;;;4993946;28;20049;-82
2022/06/09 03:28:08;;;;;;;8.18;4.00;;;13.80;99.90;;;;;;4995956;28;20049;-82
2022/06/09 03:30:34;;;;;;;11.93;4.53;;;13.80;99.90;;;;;;4978886;28;20041;-81
2022/06/09 03:33:00;;;;;;;8.50;4.07;;;13.80;99.90;;;;;;5011251;28;20044;-82
2022/06/09 03:35:26;;;;;;;9.45;4.22;;;13.80;99.90;;;;;;4993253;28;20141;-81
2022/06/09 03:37:52;;;;;;;8.10;4.63;;;13.70;99.90;;;;;;5010062;28;20132;-81
2022/06/09 03:40:20;;;;;;;10.77;4.57;;;13.70;99.90;;;;;;4974712;28;20508;-81
2022/06/09 03:42:45;;;;;;;9.68;4.75;;;13.70;99.90;;;;;;5010840;28;20130;-82
2022/06/09 03:45:12;;;;;;;9.95;5.22;;;13.80;99.90;;;;;;5010206;28;20727;-82
2022/06/09 03:47:39;;;;;;;10.00;4.88;;;13.80;99.90;;;;;;4994272;28;20511;-82
2022/06/09 03:50:08;;;;;;;9.95;4.97;;;13.70;99.90;;;;;;5008644;28;20045;-81
2022/06/09 03:52:33;;;;;;;10.48;4.80;;;13.80;99.90;;;;;;5009035;28;20057;-81
2022/06/09 03:54:59;;;;;;;6.45;4.25;;;13.80;99.90;;;;;;5011310;28;20468;-81
2022/06/09 03:57:25;;;;;;;9.27;4.72;;;13.80;99.90;;;;;;4976828;28;20449;-82
2022/06/09 03:59:51;;;;;;;9.10;4.75;;;13.80;99.90;;;;;;4992800;28;20045;-81
2022/06/09 04:02:17;;;;;;;11.18;4.90;;;13.80;99.90;;;;;;4994379;28;20072;-82
2022/06/09 04:04:43;;;;;;;6.97;4.90;;;13.80;99.90;;;;;;5008604;28;20064;-82
2022/06/09 04:07:11;;;;;;;9.43;4.60;;;13.80;99.90;;;;;;5009480;28;20093;-82
2022/06/09 04:09:37;;;;;;;10.18;5.40;;;13.90;99.90;;;;;;5008727;28;20092;-82
2022/06/09 04:12:04;;;;;;;8.65;4.93;;;13.90;99.90;;;;;;5009266;28;20085;-81
2022/06/09 04:14:29;;;;;;;12.85;5.18;;;13.90;99.90;;;;;;4991754;28;20482;-80
2022/06/09 04:16:55;;;;;;;8.40;5.40;;;13.90;99.90;;;;;;4993715;28;20132;-81
2022/06/09 04:19:22;;;;;;;8.70;4.93;;;14.00;99.90;;;;;;5008631;28;20042;-82
2022/06/09 04:21:48;;;;;;;11.88;6.50;;;14.00;99.90;;;;;;5008319;28;20072;-82
2022/06/09 04:24:15;;;;;;;8.55;6.28;;;14.10;99.90;;;;;;5010020;28;20527;-82
2022/06/09 04:26:41;;;;;;;9.50;6.03;;;14.10;99.90;;;;;;4992556;28;20041;-81
2022/06/09 04:29:11;;;;;;;9.38;5.20;;;14.20;99.90;;;;;;5008641;28;20398;-82
2022/06/09 04:31:37;;;;;;;10.07;6.28;;;14.20;99.90;;;;;;5008098;28;20037;-82
2022/06/09 04:34:03;;;;;;;8.00;5.90;;;14.20;99.90;;;;;;5009609;28;20500;-82
2022/06/09 04:36:29;;;;;;;10.13;6.35;;;14.30;99.90;;;;;;4991328;28;20088;-81
2022/06/09 04:38:55;;;;;;;9.20;6.35;;;14.30;99.90;;;;;;4988061;28;20046;-82
2022/06/09 04:41:21;;;;;;;8.68;5.78;;;14.30;99.90;;;;;;4977506;28;20390;-82
2022/06/09 04:43:47;;;;;;;13.75;6.60;;;14.30;99.90;;;;;;5009329;28;20060;-82
2022/06/09 04:46:19;;;;;;;7.85;6.13;;;14.40;99.90;;;;;;4994197;28;20049;-81
2022/06/09 04:48:45;;;;;;;8.85;5.82;;;14.40;99.90;;;;;;5008348;28;20056;-83
2022/06/09 04:51:13;;;;;;;9.98;6.18;;;14.40;99.90;;;;;;5007595;28;20045;-82
2022/06/09 04:53:40;;;;;;;9.43;6.15;;;14.40;99.90;;;;;;5004201;28;20045;-82
2022/06/09 04:56:07;;;;;;;8.32;5.90;;;14.40;99.90;;;;;;5009182;28;20136;-82
2022/06/09 04:58:33;;;;;;;8.40;5.70;;;14.40;99.90;;;;;;4993894;28;20045;-81
2022/06/09 05:00:58;;;;;;;7.55;5.50;;;14.40;99.90;;;;;;5009868;28;20103;-82
2022/06/09 05:03:24;;;;;;;9.13;5.38;;;14.40;99.90;;;;;;4992573;28;20080;-82
2022/06/09 05:05:50;;;;;;;9.20;5.22;;;14.40;99.90;;;;;;4989718;28;20481;-82
2022/06/09 05:08:17;;;;;;;9.63;5.30;;;14.40;99.90;;;;;;4992045;28;20107;-82
2022/06/09 05:10:44;;;;;;;8.38;5.07;;;14.40;99.90;;;;;;4990640;28;20057;-82
2022/06/09 05:13:10;;;;;;;7.93;5.18;;;14.50;99.90;;;;;;5007264;28;20064;-82
2022/06/09 05:15:43;;;;;;;9.32;4.90;;;14.50;99.90;;;;;;4973607;28;20041;-82
2022/06/09 05:18:11;;;;;;;10.25;4.57;;;14.50;99.90;;;;;;5008071;28;20049;-82
2022/06/09 05:20:37;;;;;;;9.32;4.22;;;14.60;99.90;;;;;;4991524;28;20569;-82
2022/06/09 05:23:02;;;;;;;8.05;4.10;;;14.60;99.90;;;;;;4976122;28;20060;-82
2022/06/09 05:25:28;;;;;;;7.60;3.50;;;14.60;99.90;;;;;;5008519;28;20053;-81
2022/06/09 05:27:54;;;;;;;8.30;3.08;;;14.60;99.90;;;;;;5007832;28;20492;-81
2022/06/09 05:30:23;;;;;;;6.30;3.22;;;14.70;99.90;;;;;;4975609;28;20056;-81
2022/06/09 05:32:49;;;;;;;6.85;2.90;;;14.70;99.90;;;;;;4991559;28;20048;-81
2022/06/09 05:35:15;;;;;;;9.50;2.85;;;14.70;99.90;;;;;;4990326;28;20053;-81
2022/06/09 05:45:58;;;;;;;5.95;2.90;;;15.00;99.90;;;;;;4973565;28;20061;-79
2022/06/09 05:48:23;;;;;;;7.88;2.72;;;15.00;99.90;;;;;;4974145;28;20084;-79
2022/06/09 05:50:50;;;;;;;4.82;2.10;;;15.10;99.90;;;;;;4968224;28;20506;-79
2022/06/09 05:53:16;;;;;;;5.55;2.35;;;15.10;99.90;;;;;;4988193;28;20054;-79
2022/06/09 05:55:42;;;;;;;7.93;2.80;;;15.10;99.90;;;;;;4988046;28;20096;-80
2022/06/09 05:58:08;;;;;;;7.43;2.38;;;15.20;99.90;;;;;;4973104;28;20180;-80
2022/06/09 06:00:34;;;;;;;7.57;2.30;;;15.20;99.90;;;;;;4987357;28;20041;-79
2022/06/09 06:03:00;;;;;;;5.10;2.35;;;15.30;99.90;;;;;;4975835;28;20045;-80
2022/06/09 06:08:10;;;;;;;5.15;2.05;;;15.50;99.90;;;;;;4989125;28;20069;-80
2022/06/09 06:10:35;;;;;;;4.50;1.75;;;15.50;99.90;;;;;;4986778;28;20065;-80
2022/06/09 06:13:01;;;;;;;6.88;2.22;;;15.50;99.90;;;;;;4973216;28;20419;-80
2022/06/09 06:15:27;;;;;;;6.40;1.90;;;15.50;99.90;;;;;;4966726;28;20062;-80
2022/06/09 06:17:54;;;;;;;5.80;1.70;;;15.60;99.90;;;;;;4982092;28;20041;-80
2022/06/09 06:20:20;;;;;;;5.55;1.70;;;15.60;99.90;;;;;;4983467;28;20038;-79
2022/06/09 06:22:46;;;;;;;6.40;1.77;;;15.70;99.90;;;;;;4976544;28;20056;-79
2022/06/09 06:25:12;;;;;;;5.10;2.15;;;15.80;99.90;;;;;;4965086;28;20050;-80
2022/06/09 06:27:38;;;;;;;10.00;2.05;;;15.80;99.90;;;;;;4984530;28;20081;-78
2022/06/09 06:30:05;;;;;;;11.13;1.85;;;15.90;99.90;;;;;;4964471;28;20048;-80
2022/06/09 06:32:31;;;;;;;4.43;1.73;;;15.90;99.90;;;;;;4949802;28;20053;-82
2022/06/09 06:34:57;;;;;;;7.55;1.88;;;16.00;99.90;;;;;;4948900;28;20050;-80
2022/06/09 06:37:23;;;;;;;5.07;1.83;;;16.00;99.90;;;;;;4984080;28;20442;-79
2022/06/09 06:39:49;;;;;;;4.70;1.50;;;16.10;99.90;;;;;;4966153;28;20065;-80
2022/06/09 06:42:16;;;;;;;5.82;1.85;;;16.10;99.90;;;;;;4988679;28;20084;-79
2022/06/09 06:44:41;;;;;;;4.97;1.60;;;16.10;99.90;;;;;;4987213;28;20049;-80
2022/06/09 06:47:07;;;;;;;9.48;1.95;;;16.20;99.90;;;;;;4989431;28;20041;-80
2022/06/09 06:49:33;;;;;;;8.98;2.10;;;16.30;99.90;;;;;;4989066;28;20045;-80
2022/06/09 06:51:58;;;;;;;5.50;1.58;;;16.30;99.90;;;;;;4985102;28;20048;-80
2022/06/09 06:54:24;;;;;;;5.50;1.70;;;16.30;99.90;;;;;;4983752;28;20060;-79
2022/06/09 06:56:50;;;;;;;6.22;1.65;;;16.30;99.90;;;;;;4953806;28;20957;-81
2022/06/09 06:59:15;;;;;;;7.32;1.70;;;16.50;99.90;;;;;;4937266;28;20610;-79
2022/06/09 07:01:41;;;;;;;6.57;1.92;;;16.50;99.90;;;;;;4983920;28;20137;-80
2022/06/09 07:04:07;;;;;;;10.05;2.10;;;16.60;99.90;;;;;;4985015;28;20050;-81
2022/06/09 07:06:32;;;;;;;7.25;2.13;;;16.60;99.90;;;;;;4952590;28;20481;-80
2022/06/09 07:08:58;;;;;;;6.60;1.70;;;16.60;99.90;;;;;;4968815;28;20050;-81
2022/06/09 07:11:24;;;;;;;7.20;2.22;;;16.60;99.90;;;;;;4984079;28;20045;-79
2022/06/09 07:13:49;;;;;;;5.43;1.95;;;16.60;99.90;;;;;;4987948;28;20435;-79
2022/06/09 07:16:15;;;;;;;7.90;1.95;;;16.70;99.90;;;;;;4954040;28;20145;-79
2022/06/09 07:18:41;;;;;;;6.57;2.38;;;16.80;99.90;;;;;;4985571;28;20051;-79
2022/06/09 07:21:07;;;;;;;8.50;1.80;;;17.00;99.90;;;;;;4983903;28;20421;-79
2022/06/09 07:23:34;;;;;;;5.88;2.00;;;17.10;99.90;;;;;;4970577;28;20065;-80
2022/06/09 07:26:01;;;;;;;5.20;1.52;;;17.10;99.90;;;;;;4988217;28;20038;-80
2022/06/09 07:28:27;;;;;;;6.35;1.70;;;17.10;99.90;;;;;;4969926;28;20050;-80
2022/06/09 07:30:56;;;;;;;7.15;1.80;;;17.10;99.90;;;;;;4967565;28;20058;-80
2022/06/09 07:33:28;;;;;;;7.38;1.40;;;17.30;99.90;;;;;;4974228;28;20664;-80
2022/06/09 07:35:56;;;;;;;7.93;1.90;;;17.50;99.90;;;;;;4987105;28;20053;-80
2022/06/09 07:38:23;;;;;;;7.28;1.70;;;17.70;99.90;;;;;;4988008;28;20115;-80
2022/06/09 07:40:50;;;;;;;4.50;1.40;;;17.60;99.90;;;;;;4990207;28;20061;-80
2022/06/09 07:43:16;;;;;;;7.35;2.13;;;17.60;99.90;;;;;;5005600;28;20045;-79
2022/06/09 07:45:43;;;;;;;6.30;1.42;;;17.60;99.90;;;;;;4990358;28;20061;-80
2022/06/09 07:48:09;;;;;;;4.38;1.48;;;17.60;99.90;;;;;;5005478;28;20569;-80
2022/06/09 07:50:35;;;;;;;4.60;1.50;;;17.70;99.90;;;;;;4988727;28;20038;-80
2022/06/09 07:53:01;;;;;;;7.68;2.00;;;17.80;99.90;;;;;;4986394;28;20046;-81
2022/06/09 07:55:27;;;;;;;5.78;1.75;;;17.80;99.90;;;;;;4993389;28;20057;-80
2022/06/09 07:57:54;;;;;;;6.90;2.22;;;17.80;99.90;;;;;;5004369;28;20061;-87
2022/06/09 08:00:22;;;;;;;8.18;1.80;;;17.90;99.90;;;;;;5007520;28;20046;-86
2022/06/09 08:02:49;;;;;;;5.43;1.65;;;17.90;99.90;;;;;;5009236;28;20046;-87
2022/06/09 08:05:20;;;;;;;7.28;1.48;;;17.90;99.90;;;;;;5009475;28;20741;-90
2022/06/09 08:07:46;;;;;;;5.88;1.48;;;18.00;99.90;;;;;;5008022;28;20407;-88
2022/06/09 08:10:20;;;;;;;6.97;1.98;;;18.20;99.90;;;;;;4989386;28;20053;-90
2022/06/09 08:12:47;;;;;;;6.25;1.95;;;18.40;99.90;;;;;;4991012;28;20060;-88
2022/06/09 08:15:14;;;;;;;6.55;1.67;;;18.30;99.90;;;;;;4995446;28;20053;-80
2022/06/09 08:17:40;;;;;;;9.77;2.10;;;18.30;99.90;;;;;;4991064;28;20045;-77
2022/06/09 08:20:07;;;;;;;4.32;1.50;;;18.50;99.90;;;;;;5005865;28;20054;-78
2022/06/09 08:22:33;;;;;;;8.90;2.03;;;18.50;99.90;;;;;;5004381;28;20373;-78
2022/06/09 08:24:58;;;;;;;6.60;1.70;;;18.60;99.90;;;;;;5006284;28;20056;-77
2022/06/09 08:27:24;;;;;;;7.22;1.85;;;18.80;99.90;;;;;;5007339;28;20165;-78
2022/06/09 08:29:51;;;;;;;7.15;1.75;;;19.00;99.90;;;;;;4986300;28;20041;-78
2022/06/09 08:32:16;;;;;;;6.18;1.52;;;19.10;99.90;;;;;;5006764;28;20050;-78
2022/06/09 08:34:42;;;;;;;7.35;1.75;;;19.10;99.90;;;;;;4986978;28;20503;-77
2022/06/09 08:37:08;;;;;;;5.05;1.40;;;19.20;99.90;;;;;;5006607;28;20136;-78
2022/06/09 08:39:35;;;;;;;6.60;1.75;;;19.40;99.90;;;;;;4996765;28;20072;-77
2022/06/09 08:42:12;;;;;;;5.88;1.40;;;19.40;99.90;;;;;;4987496;28;20053;-78
2022/06/09 08:44:47;;;;;;;6.90;1.70;;;19.50;99.90;;;;;;4972773;28;20071;-78
2022/06/09 08:47:23;;;;;;;8.73;2.23;;;19.60;99.90;;;;;;4985761;28;20050;-82
2022/06/09 08:50:12;;;;;;;4.85;1.38;;;19.60;99.90;;;;;;4972729;28;20053;-77
2022/06/09 08:52:55;;;;;;;8.30;1.63;;;19.50;99.90;;;;;;4986434;28;20120;-77
2022/06/09 08:55:42;;;;;;;7.32;1.52;;;19.60;99.90;;;;;;4989050;28;20042;-76
2022/06/09 08:58:26;;;;;;;7.32;1.67;;;19.80;99.90;;;;;;4984226;28;20038;-77
2022/06/09 09:01:22;;;;;;;4.70;1.40;;;19.90;99.90;;;;;;4987090;28;20145;-77
2022/06/09 09:03:51;;;;;;;;;;;19.90;99.90;;;;;;4978212;28;20076;-76
2022/06/09 09:06:25;;;;;;;5.30;1.48;;;20.00;99.90;;;;;;5002786;28;19930;-76
2022/06/09 09:08:51;;;;;;;5.53;1.77;;;20.10;99.90;;;;;;4971754;28;20069;-76
2022/06/09 09:11:32;;;;;;;5.10;1.60;;;20.30;99.90;;;;;;4968463;28;20062;-77
2022/06/09 09:14:11;;;;;;;7.30;1.50;;;20.40;99.90;;;;;;4968367;28;20054;-77
2022/06/09 09:17:20;;;;;;;5.65;1.60;;;20.60;99.90;;;;;;4987131;28;20367;-77
2022/06/09 09:19:51;;;;;;;5.38;1.52;;;20.70;99.90;;;;;;4887022;29;20551;-77
2022/06/09 09:22:43;;;;;;;5.13;1.40;;;20.60;99.90;;;;;;4984695;28;20061;-77
2022/06/09 09:25:13;;;;;;;5.93;2.08;;;20.60;99.90;;;;;;4981795;28;20062;-77
2022/06/09 09:28:13;;;;;;;4.85;1.45;;;20.60;99.90;;;;;;4985781;28;20137;-77
2022/06/09 09:30:47;;;;;;;5.53;1.50;;;20.70;99.90;;;;;;4986822;28;20061;-76
2022/06/09 09:33:17;;;;;;;5.95;1.98;;;20.70;99.90;;;;;;5004395;28;20072;-77
2022/06/09 09:35:45;;;;;;;5.90;1.73;;;20.60;99.90;;;;;;4987343;28;20053;-76
2022/06/09 09:38:16;;;;;;;5.55;1.60;;;20.50;99.90;;;;;;4985132;28;20053;-77
2022/06/09 09:40:44;;;;;;;5.35;1.30;;;20.60;99.90;;;;;;4985466;28;20049;-76
2022/06/09 09:43:23;;;;;;;5.40;1.67;;;20.70;99.90;;;;;;4967842;28;20052;-76
2022/06/09 09:45:55;;;;;;;8.68;1.77;;;20.60;99.90;;;;;;4971361;28;20133;-77
2022/06/09 09:48:20;;;;;;;7.57;1.95;;;20.60;99.90;;;;;;4982772;28;20176;-77
2022/06/09 09:50:51;;;;;;;4.15;1.42;;;20.70;99.90;;;;;;4983888;28;20076;-77
2022/06/09 09:53:28;;;;;;;6.10;1.92;;;20.90;99.90;;;;;;4963611;28;20555;-77
2022/06/09 09:55:59;;;;;;;5.70;1.58;;;21.20;99.90;;;;;;4982635;28;20048;-77
2022/06/09 09:58:39;;;;;;;7.32;1.90;;;21.40;99.90;;;;;;4981740;28;20050;-77
2022/06/09 10:01:16;;;;;;;7.60;2.25;;;21.50;99.90;;;;;;4966788;28;20050;-77
2022/06/09 10:09:40;;;;;;;7.57;1.70;;;21.40;99.90;;;;;;4987180;28;20073;-77
2022/06/09 10:12:28;;;;;;;7.70;1.80;;;21.40;99.90;;;;;;4999471;28;20100;-77
2022/06/09 10:15:09;;;;;;;6.50;2.10;;;21.10;99.90;;;;;;4983637;28;20058;-77
2022/06/09 10:17:57;;;;;;;5.30;1.45;;;20.90;99.90;;;;;;4983622;28;20049;-77
2022/06/09 10:20:43;;;;;;;5.10;1.73;;;21.20;99.90;;;;;;4982232;28;20248;-77
2022/06/09 10:23:17;;;;;;;5.38;1.52;;;21.50;99.90;;;;;;4983116;28;20055;-77
2022/06/09 10:26:01;;;;;;;8.73;2.15;;;21.50;99.90;;;;;;4984552;28;20061;-77
2022/06/09 10:28:46;;;;;;;5.70;1.90;;;21.40;99.90;;;;;;4981950;28;20050;-77
2022/06/09 10:31:50;;;;;;;4.72;1.40;;;21.70;99.90;;;;;;4983863;28;20055;-77
2022/06/09 10:34:31;;;;;;;4.97;1.50;;;21.50;99.90;;;;;;4984198;28;20532;-78
2022/06/09 10:37:31;;;;;;;3.50;1.40;;;21.30;99.90;;;;;;4983872;28;20053;-77
2022/06/09 10:40:05;;;;;;;7.72;2.08;;;21.00;99.90;;;;;;4980951;28;20567;-77
2022/06/09 10:42:40;;;;;;;10.30;2.40;;;20.90;99.90;;;;;;5000618;28;20038;-77
2022/06/09 10:45:43;;;;;;;5.82;1.70;;;20.60;99.90;;;;;;4985891;28;20383;-78
2022/06/09 10:57:16;;;;;;;5.85;2.17;;;20.30;99.90;;;;;;4985403;28;19925;-79
2022/06/09 10:59:58;;;;;;;7.03;1.75;;;20.10;99.90;;;;;;4968602;28;20057;-86
2022/06/09 11:02:28;;;;;;;6.82;1.85;;;20.10;99.90;;;;;;4984881;28;20080;-82
2022/06/09 11:04:54;;;;;;;7.40;2.20;;;20.50;99.90;;;;;;4970490;28;20168;-79
2022/06/09 11:07:52;;;;;;;6.55;2.05;;;20.70;99.90;;;;;;4980991;28;20136;-80
2022/06/09 11:10:27;;;;;;;6.28;1.98;;;21.10;99.90;;;;;;4963106;28;20065;-80
2022/06/09 11:13:17;;;;;;;5.30;1.83;;;21.10;99.90;;;;;;4985225;28;20439;-80
2022/06/09 11:16:15;;;;;;;4.90;1.58;;;21.00;99.90;;;;;;4963175;28;20473;-80
2022/06/09 11:18:52;;;;;;;5.43;1.73;;;21.30;99.90;;;;;;4963209;28;20047;-80
2022/06/09 11:21:40;;;;;;;8.85;2.00;;;21.60;99.90;;;;;;4980805;28;20068;-80
2022/06/09 11:24:24;;;;;;;6.57;2.00;;;21.70;99.90;;;;;;4963015;28;20494;-79
2022/06/09 11:26:54;;;;;;;8.40;2.35;;;21.90;99.90;;;;;;4985018;28;20065;-78
2022/06/09 11:29:38;;;;;;;7.45;2.10;;;21.90;99.90;;;;;;4985251;28;20141;-80
2022/06/09 11:32:11;;;;;;;6.35;1.95;;;22.10;99.90;;;;;;4986259;28;20065;-81
2022/06/09 11:34:58;;;;;;;5.47;1.65;;;21.90;99.90;;;;;;4983068;28;20038;-80
2022/06/09 11:37:49;;;;;;;7.80;2.08;;;21.90;99.90;;;;;;4970424;28;20084;-79
2022/06/09 11:40:43;;;;;;;8.23;2.53;;;21.70;99.90;;;;;;4984825;28;20057;-81
2022/06/09 11:43:39;;;;;;;6.40;1.65;;;21.90;99.90;;;;;;4987194;28;20081;-79
2022/06/09 11:46:27;;;;;;;4.53;1.95;;;22.30;99.90;;;;;;4975630;28;20060;-80
2022/06/09 11:48:57;;;;;;;9.07;2.22;;;22.10;99.90;;;;;;4986495;28;20519;-80
2022/06/09 11:51:26;;;;;;;7.43;1.80;;;22.20;99.90;;;;;;4970295;28;20096;-82
2022/06/09 11:53:59;;;;;;;6.57;2.00;;;22.10;99.90;;;;;;4986677;28;20718;-79
2022/06/09 11:56:33;;;;;;;6.55;2.15;;;22.10;99.90;;;;;;5001734;28;20041;-80
2022/06/09 11:59:11;;;;;;;8.55;2.10;;;22.00;99.90;;;;;;4971955;28;20040;-80
2022/06/09 12:01:40;;;;;;;7.88;2.17;;;21.90;99.90;;;;;;4985370;28;20046;-79
2022/06/09 12:04:23;;;;;;;6.85;1.73;;;21.90;99.90;;;;;;4970631;28;20057;-79
2022/06/09 12:07:10;;;;;;;5.40;2.03;;;21.80;99.90;;;;;;4972366;28;20138;-80
2022/06/09 12:09:44;;;;;;;;;;;21.90;99.90;;;;;;4970483;28;20433;-80
2022/06/09 12:12:32;;;;;;;6.78;1.88;;;21.90;99.90;;;;;;4986171;28;19925;-87
2022/06/09 12:15:23;;;;;;;7.90;2.30;;;22.20;99.90;;;;;;4987629;28;20127;-84
2022/06/09 12:18:09;;;;;;;7.20;2.08;;;22.20;99.90;;;;;;4989209;28;20084;-82
2022/06/09 12:21:03;;;;;;;6.85;1.95;;;22.40;99.90;;;;;;4962019;28;20059;-78
2022/06/09 12:23:50;;;;;;;4.70;1.50;;;22.50;99.90;;;;;;4958551;28;20481;-79
2022/06/09 12:26:18;;;;;;;6.28;2.00;;;22.70;99.90;;;;;;4970758;28;20053;-78
2022/06/09 12:28:50;;;;;;;7.25;2.13;;;22.30;99.90;;;;;;4967174;28;20112;-78
2022/06/09 12:31:29;;;;;;;8.05;2.20;;;22.30;99.90;;;;;;4970043;28;20050;-79
2022/06/09 12:34:11;;;;;;;5.63;2.05;;;22.20;99.90;;;;;;4987114;28;20058;-78
2022/06/09 12:36:57;;;;;;;7.93;2.00;;;22.20;99.90;;;;;;4985785;28;20058;-78
2022/06/09 12:39:34;;;;;;;5.00;2.15;;;22.40;99.90;;;;;;5001373;28;20061;-78
2022/06/09 12:42:05;;;;;;;10.07;2.47;;;22.50;99.90;;;;;;4984848;28;20046;-78
2022/06/09 12:44:38;;;;;;;9.50;2.67;;;22.50;99.90;;;;;;4983687;28;20054;-78
2022/06/09 12:47:17;;;;;;;7.35;2.00;;;22.70;99.90;;;;;;4984255;28;20120;-78
2022/06/09 12:50:06;;;;;;;9.30;2.08;;;23.00;99.90;;;;;;4983679;28;20054;-84
2022/06/09 12:52:40;;;;;;;7.38;2.13;;;22.90;99.90;;;;;;4965672;28;20145;-81
2022/06/09 12:55:20;;;;;;;8.35;2.30;;;23.30;99.90;;;;;;4985868;28;20094;-83
2022/06/09 12:57:49;;;;;;;8.88;2.25;;;23.00;99.90;;;;;;4985423;28;20192;-82
2022/06/09 13:00:15;;;;;;;8.00;2.35;;;23.10;99.90;;;;;;4984297;28;20065;-83
2022/06/09 13:02:41;;;;;;;10.77;3.00;;;23.20;99.90;;;;;;4984300;28;20050;-83
2022/06/09 13:05:16;;;;;;;8.32;1.88;;;23.20;99.90;;;;;;4984768;28;20111;-80
2022/06/09 13:07:52;;;;;;;8.77;2.43;;;23.30;99.90;;;;;;4968339;28;20519;-79
2022/06/09 13:10:28;;;;;;;8.93;2.55;;;23.50;99.90;;;;;;4964990;28;20053;-80
2022/06/09 13:13:02;;;;;;;8.40;2.42;;;23.50;99.90;;;;;;4982060;28;20136;-80
2022/06/09 13:15:55;;;;;;;9.52;2.70;;;23.10;99.90;;;;;;4969935;28;20042;-81
2022/06/09 13:18:41;;;;;;;7.28;2.00;;;23.20;99.90;;;;;;5000157;28;20034;-81
2022/06/09 13:21:20;;;;;;;9.15;3.03;;;23.40;99.90;;;;;;4984793;28;20153;-80
2022/06/09 13:23:54;;;;;;;10.25;2.72;;;23.50;99.90;;;;;;4986272;28;20888;-81
2022/06/09 13:26:23;;;;;;;10.05;2.70;;;23.50;99.90;;;;;;4984443;28;20053;-81
2022/06/09 13:28:52;;;;;;;10.20;2.92;;;23.40;99.90;;;;;;4984898;28;20084;-81
2022/06/09 13:31:30;;;;;;;8.93;2.50;;;23.40;99.90;;;;;;4969242;28;20100;-81
2022/06/09 13:33:56;;;;;;;9.50;2.45;;;23.40;99.90;;;;;;4983005;28;20060;-81
2022/06/09 13:36:29;;;;;;;13.43;2.50;;;23.20;99.90;;;;;;4975422;28;20054;-81